createdAt,value
2022-08-02T00:00:55.525Z,66.54
2022-08-02T00:01:53.953Z,65.10
2022-08-02T00:02:53.902Z,65.41
2022-08-02T00:03:53.912Z,62.94
2022-08-02T00:04:53.908Z,66.13
2022-08-02T00:05:54.146Z,63.63
2022-08-02T00:06:53.885Z,64.24
2022-08-02T00:07:53.845Z,64.98
2022-08-02T00:08:53.833Z,65.93
2022-08-02T00:09:53.829Z,63.57
2022-08-02T00:10:53.826Z,64.06
2022-08-02T00:11:53.830Z,66.64
2022-08-02T00:12:53.804Z,66.72
2022-08-02T00:13:53.792Z,68.38
2022-08-02T00:14:53.828Z,67.41
2022-08-02T00:15:53.769Z,66.18
2022-08-02T00:16:53.752Z,66.27
2022-08-02T00:17:53.769Z,67.66
2022-08-02T00:18:53.747Z,66.92
2022-08-02T00:19:53.777Z,66.16
2022-08-02T00:20:53.736Z,65.10
2022-08-02T00:21:53.719Z,63.69
2022-08-02T00:22:53.706Z,63.01
2022-08-02T00:24:07.882Z,59.82
2022-08-02T00:24:54.707Z,64.52
2022-08-02T00:25:54.777Z,64.91
2022-08-02T00:26:53.665Z,62.52
2022-08-02T00:27:53.661Z,62.05
2022-08-02T00:28:53.650Z,63.48
2022-08-02T00:29:53.673Z,65.19
2022-08-02T00:30:53.624Z,61.51
2022-08-02T00:31:53.619Z,64.01
2022-08-02T00:32:53.607Z,63.63
2022-08-02T00:34:26.621Z,59.27
2022-08-02T00:34:54.610Z,63.11
2022-08-02T00:35:53.580Z,62.89
2022-08-02T00:36:53.581Z,62.44
2022-08-02T00:37:53.562Z,63.37
2022-08-02T00:38:53.550Z,63.87
2022-08-02T00:39:53.561Z,64.81
2022-08-02T00:40:57.862Z,60.40
2022-08-02T00:41:54.517Z,63.48
2022-08-02T00:42:53.504Z,59.98
2022-08-02T00:43:53.488Z,65.35
2022-08-02T00:44:53.509Z,60.81
2022-08-02T00:46:01.952Z,59.83
2022-08-02T00:46:54.477Z,63.45
2022-08-02T00:47:53.466Z,63.68
2022-08-02T00:48:53.500Z,65.88
2022-08-02T00:49:53.448Z,64.35
2022-08-02T00:50:53.430Z,64.61
2022-08-02T00:51:53.432Z,64.94
2022-08-02T00:52:53.412Z,62.84
2022-08-02T00:53:53.396Z,62.62
2022-08-02T00:54:53.416Z,63.22
2022-08-02T00:55:53.383Z,61.69
2022-08-02T00:56:54.371Z,62.54
2022-08-02T00:57:53.366Z,62.94
2022-08-02T00:58:53.359Z,64.36
2022-08-02T00:59:53.371Z,63.61
2022-08-02T01:00:53.338Z,61.78
2022-08-02T01:01:57.069Z,66.03
2022-08-02T01:02:53.313Z,64.89
2022-08-02T01:03:53.294Z,64.80
2022-08-02T01:04:53.317Z,64.72
2022-08-02T01:06:02.453Z,65.49
2022-08-02T01:06:54.279Z,67.07
2022-08-02T01:07:53.261Z,64.26
2022-08-02T01:08:53.260Z,65.00
2022-08-02T01:09:53.261Z,65.89
2022-08-02T01:10:53.233Z,64.90
2022-08-02T01:11:53.222Z,63.20
2022-08-02T01:12:53.208Z,63.47
2022-08-02T01:13:53.195Z,64.72
2022-08-02T01:14:53.213Z,67.33
2022-08-02T01:15:53.179Z,66.54
2022-08-02T01:16:53.172Z,65.52
2022-08-02T01:17:53.159Z,65.65
2022-08-02T01:18:53.157Z,65.88
2022-08-02T01:19:53.155Z,66.03
2022-08-02T01:20:53.131Z,67.21
2022-08-02T01:21:53.118Z,65.81
2022-08-02T01:23:02.118Z,65.41
2022-08-02T01:23:55.093Z,67.79
2022-08-02T01:24:54.112Z,65.17
2022-08-02T01:25:53.080Z,65.17
2022-08-02T01:26:53.067Z,64.88
2022-08-02T01:27:53.065Z,64.59
2022-08-02T01:28:53.050Z,62.21
2022-08-02T01:29:53.063Z,62.97
2022-08-02T01:30:53.033Z,62.87
2022-08-02T01:31:53.022Z,64.24
2022-08-02T01:32:53.010Z,65.20
2022-08-02T01:33:53.008Z,67.24
2022-08-02T01:34:53.001Z,66.45
2022-08-02T01:35:52.977Z,65.15
2022-08-02T01:36:52.967Z,66.20
2022-08-02T01:37:52.960Z,66.87
2022-08-02T01:39:27.553Z,67.64
2022-08-02T01:39:53.950Z,64.11
2022-08-02T01:40:52.921Z,64.48
2022-08-02T01:41:56.630Z,64.95
2022-08-02T01:42:54.909Z,61.54
2022-08-02T01:43:52.905Z,64.25
2022-08-02T01:44:52.916Z,64.57
2022-08-02T01:45:52.885Z,63.35
2022-08-02T01:46:52.875Z,62.38
2022-08-02T01:47:52.869Z,63.38
2022-08-02T01:48:52.881Z,61.31
2022-08-02T01:49:52.871Z,63.34
2022-08-02T01:50:52.838Z,64.74
2022-08-02T01:51:52.824Z,60.48
2022-08-02T01:52:53.599Z,61.59
2022-08-02T01:53:52.799Z,63.84
2022-08-02T01:54:52.827Z,64.09
2022-08-02T01:55:57.917Z,62.06
2022-08-02T01:56:53.812Z,64.61
2022-08-02T01:57:52.761Z,62.47
2022-08-02T01:58:52.758Z,64.56
2022-08-02T01:59:52.766Z,64.56
2022-08-02T02:00:52.798Z,66.81
2022-08-02T02:01:52.778Z,66.40
2022-08-02T02:02:52.720Z,64.01
2022-08-02T02:03:52.713Z,66.65
2022-08-02T02:04:52.716Z,65.21
2022-08-02T02:05:52.687Z,65.35
2022-08-02T02:06:52.681Z,66.41
2022-08-02T02:07:52.670Z,62.68
2022-08-02T02:08:52.658Z,66.87
2022-08-02T02:09:52.657Z,67.26
2022-08-02T02:10:52.637Z,67.56
2022-08-02T02:12:09.653Z,66.39
2022-08-02T02:12:53.672Z,65.79
2022-08-02T02:13:52.615Z,68.56
2022-08-02T02:14:52.613Z,66.66
2022-08-02T02:15:52.587Z,65.94
2022-08-02T02:16:52.578Z,67.32
2022-08-02T02:18:10.925Z,70.23
2022-08-02T02:18:53.547Z,66.88
2022-08-02T02:19:52.563Z,68.11
2022-08-02T02:20:52.529Z,68.40
2022-08-02T02:21:52.526Z,66.49
2022-08-02T02:22:52.518Z,67.81
2022-08-02T02:23:52.507Z,67.17
2022-08-02T02:24:52.521Z,69.27
2022-08-02T02:25:52.489Z,66.64
2022-08-02T02:26:52.789Z,67.45
2022-08-02T02:27:52.480Z,64.41
2022-08-02T02:28:52.450Z,67.14
2022-08-02T02:29:52.470Z,64.83
2022-08-02T02:30:52.437Z,66.33
2022-08-02T02:31:52.425Z,68.37
2022-08-02T02:32:52.406Z,67.77
2022-08-02T02:33:52.407Z,66.89
2022-08-02T02:34:52.408Z,69.64
2022-08-02T02:35:52.392Z,69.94
2022-08-02T02:36:52.364Z,67.18
2022-08-02T02:37:52.365Z,67.26
2022-08-02T02:38:52.355Z,66.38
2022-08-02T02:39:52.353Z,66.71
2022-08-02T02:40:52.354Z,66.26
2022-08-02T02:41:52.332Z,66.34
2022-08-02T02:42:52.312Z,66.82
2022-08-02T02:43:52.304Z,66.10
2022-08-02T02:44:52.297Z,67.45
2022-08-02T02:45:52.300Z,67.93
2022-08-02T02:46:52.279Z,63.41
2022-08-02T02:47:52.275Z,67.72
2022-08-02T02:48:52.278Z,67.42
2022-08-02T02:49:52.250Z,66.80
2022-08-02T02:50:52.251Z,68.11
2022-08-02T02:51:52.227Z,65.75
2022-08-02T02:52:52.226Z,66.87
2022-08-02T02:54:30.196Z,66.88
2022-08-02T02:54:53.203Z,69.77
2022-08-02T02:56:01.965Z,67.76
2022-08-02T02:56:53.183Z,67.46
2022-08-02T02:57:52.173Z,66.58
2022-08-02T02:58:52.157Z,67.99
2022-08-02T02:59:52.154Z,67.19
2022-08-02T03:00:52.194Z,65.98
2022-08-02T03:01:56.071Z,65.41
2022-08-02T03:02:53.317Z,64.86
2022-08-02T03:03:52.117Z,67.43
2022-08-02T03:04:56.858Z,65.79
2022-08-02T03:05:52.109Z,65.79
2022-08-02T03:06:52.088Z,68.08
2022-08-02T03:07:52.066Z,67.39
2022-08-02T03:08:52.048Z,67.87
2022-08-02T03:09:54.297Z,67.64
2022-08-02T03:10:52.064Z,68.84
2022-08-02T03:11:52.026Z,69.71
2022-08-02T03:12:52.025Z,66.86
2022-08-02T03:13:52.012Z,66.79
2022-08-02T03:14:51.999Z,68.76
2022-08-02T03:15:52.011Z,67.96
2022-08-02T03:16:51.987Z,68.05
2022-08-02T03:17:51.972Z,67.01
2022-08-02T03:18:51.963Z,67.54
2022-08-02T03:19:51.954Z,67.42
2022-08-02T03:20:51.956Z,65.57
2022-08-02T03:21:57.141Z,65.31
2022-08-02T03:22:52.925Z,66.86
2022-08-02T03:23:51.909Z,65.49
2022-08-02T03:24:51.895Z,67.49
2022-08-02T03:25:51.909Z,66.36
2022-08-02T03:26:51.900Z,69.11
2022-08-02T03:27:51.872Z,70.22
2022-08-02T03:28:51.850Z,69.48
2022-08-02T03:29:51.851Z,67.96
2022-08-02T03:30:51.849Z,67.75
2022-08-02T03:31:51.844Z,70.08
2022-08-02T03:32:51.818Z,67.74
2022-08-02T03:33:52.813Z,68.29
2022-08-02T03:34:51.817Z,68.17
2022-08-02T03:35:51.812Z,68.80
2022-08-02T03:36:51.786Z,67.90
2022-08-02T03:37:51.777Z,67.81
2022-08-02T03:38:51.871Z,68.98
2022-08-02T03:39:53.161Z,68.65
2022-08-02T03:40:51.760Z,71.13
2022-08-02T03:41:51.735Z,69.65
2022-08-02T03:42:51.728Z,68.29
2022-08-02T03:43:51.723Z,67.79
2022-08-02T03:44:51.703Z,68.54
2022-08-02T03:45:51.711Z,68.22
2022-08-02T03:46:51.686Z,67.03
2022-08-02T03:47:51.679Z,66.87
2022-08-02T03:48:51.713Z,66.43
2022-08-02T03:49:51.654Z,68.30
2022-08-02T03:50:51.672Z,69.46
2022-08-02T03:51:51.633Z,70.17
2022-08-02T03:52:51.626Z,72.68
2022-08-02T03:53:51.615Z,70.32
2022-08-02T03:54:51.607Z,71.13
2022-08-02T03:55:51.623Z,70.17
2022-08-02T03:56:51.589Z,69.27
2022-08-02T03:57:51.577Z,70.33
2022-08-02T03:58:51.567Z,69.47
2022-08-02T03:59:51.560Z,69.64
2022-08-02T04:00:51.636Z,67.72
2022-08-02T04:01:51.540Z,69.24
2022-08-02T04:02:51.532Z,68.30
2022-08-02T04:03:51.512Z,69.49
2022-08-02T04:04:51.506Z,68.54
2022-08-02T04:06:00.935Z,67.62
2022-08-02T04:06:52.494Z,70.61
2022-08-02T04:08:34.930Z,69.10
2022-08-02T04:08:52.472Z,67.65
2022-08-02T04:09:51.466Z,68.60
2022-08-02T04:10:51.459Z,67.22
2022-08-02T04:11:51.451Z,68.62
2022-08-02T04:12:51.434Z,68.81
2022-08-02T04:13:51.426Z,68.85
2022-08-02T04:14:51.416Z,67.72
2022-08-02T04:15:51.417Z,67.45
2022-08-02T04:16:51.396Z,69.51
2022-08-02T04:17:51.380Z,67.60
2022-08-02T04:18:51.368Z,68.27
2022-08-02T04:19:52.368Z,68.70
2022-08-02T04:20:51.374Z,68.72
2022-08-02T04:21:52.524Z,68.02
2022-08-02T04:22:51.340Z,68.71
2022-08-02T04:23:51.341Z,67.40
2022-08-02T04:24:51.323Z,68.20
2022-08-02T04:25:51.489Z,68.14
2022-08-02T04:26:51.314Z,67.73
2022-08-02T04:28:16.987Z,67.40
2022-08-02T04:28:52.273Z,66.86
2022-08-02T04:29:51.277Z,68.60
2022-08-02T04:30:51.284Z,68.41
2022-08-02T04:31:51.238Z,69.90
2022-08-02T04:32:51.239Z,68.62
2022-08-02T04:33:51.223Z,66.55
2022-08-02T04:35:17.653Z,67.41
2022-08-02T04:35:57.808Z,68.32
2022-08-02T04:36:51.201Z,69.57
2022-08-02T04:38:08.952Z,69.69
2022-08-02T04:38:52.178Z,69.93
2022-08-02T04:39:51.175Z,69.38
2022-08-02T04:40:51.178Z,69.73
2022-08-02T04:41:54.484Z,69.58
2022-08-02T04:42:52.141Z,68.33
2022-08-02T04:43:51.131Z,68.35
2022-08-02T04:44:51.119Z,68.25
2022-08-02T04:45:51.129Z,67.51
2022-08-02T04:46:51.096Z,67.89
2022-08-02T04:48:02.093Z,66.61
2022-08-02T04:48:52.129Z,69.75
2022-08-02T04:49:51.067Z,69.75
2022-08-02T04:50:51.068Z,68.78
2022-08-02T04:51:51.047Z,68.63
2022-08-02T04:52:51.032Z,69.47
2022-08-02T04:53:51.028Z,68.62
2022-08-02T04:54:51.016Z,67.32
2022-08-02T04:55:51.020Z,68.35
2022-08-02T04:56:50.996Z,69.27
2022-08-02T04:57:53.106Z,67.19
2022-08-02T04:58:50.973Z,66.44
2022-08-02T04:59:54.481Z,66.01
2022-08-02T05:00:52.021Z,67.52
2022-08-02T05:01:50.949Z,66.60
2022-08-02T05:02:50.927Z,68.23
2022-08-02T05:03:50.928Z,67.01
2022-08-02T05:04:50.921Z,67.86
2022-08-02T05:05:50.922Z,65.50
2022-08-02T05:06:50.887Z,65.55
2022-08-02T05:07:50.892Z,63.41
2022-08-02T05:08:52.779Z,64.83
2022-08-02T05:09:50.876Z,65.04
2022-08-02T05:10:50.863Z,64.97
2022-08-02T05:11:53.282Z,64.90
2022-08-02T05:12:50.843Z,65.78
2022-08-02T05:13:57.919Z,64.75
2022-08-02T05:14:51.815Z,66.40
2022-08-02T05:15:50.815Z,65.00
2022-08-02T05:16:50.816Z,65.59
2022-08-02T05:17:50.912Z,64.91
2022-08-02T05:18:50.776Z,66.40
2022-08-02T05:19:50.766Z,64.49
2022-08-02T05:20:53.974Z,63.52
2022-08-02T05:21:51.773Z,67.24
2022-08-02T05:22:50.734Z,66.67
2022-08-02T05:23:50.731Z,66.65
2022-08-02T05:24:50.720Z,68.05
2022-08-02T05:25:50.716Z,66.54
2022-08-02T05:26:50.724Z,65.87
2022-08-02T05:27:50.692Z,66.12
2022-08-02T05:28:50.687Z,65.32
2022-08-02T05:29:53.146Z,65.87
2022-08-02T05:30:50.663Z,65.35
2022-08-02T05:31:50.662Z,66.01
2022-08-02T05:32:50.639Z,65.59
2022-08-02T05:33:50.630Z,67.42
2022-08-02T05:34:50.613Z,66.59
2022-08-02T05:35:50.612Z,66.80
2022-08-02T05:36:50.616Z,66.52
2022-08-02T05:37:50.591Z,65.66
2022-08-02T05:38:50.580Z,66.27
2022-08-02T05:39:55.401Z,66.32
2022-08-02T05:40:54.389Z,67.41
2022-08-02T05:41:50.580Z,66.49
2022-08-02T05:42:50.552Z,67.62
2022-08-02T05:43:50.536Z,67.75
2022-08-02T05:44:50.566Z,66.17
2022-08-02T05:45:50.515Z,67.86
2022-08-02T05:46:50.521Z,66.18
2022-08-02T05:47:50.491Z,68.59
2022-08-02T05:48:50.540Z,67.59
2022-08-02T05:49:50.474Z,68.30
2022-08-02T05:50:50.449Z,66.19
2022-08-02T05:51:50.466Z,65.66
2022-08-02T05:52:50.446Z,66.24
2022-08-02T05:53:50.420Z,66.96
2022-08-02T05:54:51.425Z,66.54
2022-08-02T05:55:50.421Z,67.62
2022-08-02T05:56:50.433Z,67.64
2022-08-02T05:57:50.393Z,67.20
2022-08-02T05:58:50.389Z,66.58
2022-08-02T05:59:50.375Z,66.94
2022-08-02T06:00:50.371Z,65.23
2022-08-02T06:01:50.467Z,66.45
2022-08-02T06:02:50.438Z,65.52
2022-08-02T06:03:50.340Z,66.04
2022-08-02T06:04:50.332Z,65.71
2022-08-02T06:05:50.323Z,65.37
2022-08-02T06:06:50.318Z,66.24
2022-08-02T06:07:50.301Z,63.19
2022-08-02T06:08:50.290Z,63.19
2022-08-02T06:09:50.296Z,63.16
2022-08-02T06:10:50.285Z,65.08
2022-08-02T06:12:11.471Z,63.54
2022-08-02T06:12:51.249Z,63.88
2022-08-02T06:13:50.234Z,64.14
2022-08-02T06:14:54.141Z,61.94
2022-08-02T06:15:52.808Z,60.07
2022-08-02T06:16:50.229Z,64.41
2022-08-02T06:17:50.549Z,65.39
2022-08-02T06:18:50.185Z,63.91
2022-08-02T06:19:51.624Z,62.70
2022-08-02T06:20:50.174Z,63.47
2022-08-02T06:22:33.903Z,63.66
2022-08-02T06:22:51.142Z,62.58
2022-08-02T06:23:56.656Z,63.15
2022-08-02T06:24:51.133Z,63.47
2022-08-02T06:25:51.691Z,64.08
2022-08-02T06:26:50.133Z,61.77
2022-08-02T06:27:50.104Z,64.46
2022-08-02T06:28:50.093Z,65.15
2022-08-02T06:29:50.081Z,65.40
2022-08-02T06:30:50.072Z,64.72
2022-08-02T06:31:50.082Z,64.49
2022-08-02T06:32:50.063Z,63.96
2022-08-02T06:33:50.044Z,64.47
2022-08-02T06:34:50.024Z,65.80
2022-08-02T06:35:50.021Z,63.74
2022-08-02T06:36:50.028Z,64.83
2022-08-02T06:37:49.999Z,64.25
2022-08-02T06:38:51.022Z,63.62
2022-08-02T06:39:49.986Z,63.65
2022-08-02T06:40:49.964Z,62.17
2022-08-02T06:41:49.997Z,64.33
2022-08-02T06:42:49.940Z,64.95
2022-08-02T06:43:50.935Z,64.80
2022-08-02T06:44:54.279Z,65.04
2022-08-02T06:45:51.929Z,64.13
2022-08-02T06:47:10.071Z,61.20
2022-08-02T06:47:50.916Z,64.58
2022-08-02T06:48:49.963Z,65.32
2022-08-02T06:49:51.617Z,63.59
2022-08-02T06:50:49.866Z,62.45
2022-08-02T06:51:49.876Z,63.01
2022-08-02T06:52:49.866Z,64.03
2022-08-02T06:53:49.845Z,65.14
2022-08-02T06:54:49.825Z,64.68
2022-08-02T06:55:49.828Z,62.70
2022-08-02T06:56:49.846Z,61.74
2022-08-02T06:57:49.813Z,63.12
2022-08-02T06:58:49.791Z,63.07
2022-08-02T06:59:49.796Z,63.67
2022-08-02T07:00:49.854Z,64.04
2022-08-02T07:01:49.798Z,62.87
2022-08-02T07:02:49.747Z,63.45
2022-08-02T07:03:49.755Z,64.01
2022-08-02T07:04:49.757Z,64.40
2022-08-02T07:05:49.732Z,63.91
2022-08-02T07:06:49.739Z,61.88
2022-08-02T07:07:49.715Z,65.28
2022-08-02T07:09:11.251Z,62.60
2022-08-02T07:09:56.432Z,61.59
2022-08-02T07:10:50.677Z,63.96
2022-08-02T07:11:49.697Z,63.23
2022-08-02T07:12:49.675Z,62.99
2022-08-02T07:13:49.655Z,61.84
2022-08-02T07:14:49.635Z,65.52
2022-08-02T07:15:49.629Z,60.07
2022-08-02T07:16:49.645Z,63.16
2022-08-02T07:17:49.616Z,62.41
2022-08-02T07:18:49.603Z,64.27
2022-08-02T07:19:49.595Z,61.58
2022-08-02T07:20:49.582Z,62.95
2022-08-02T07:21:57.095Z,62.93
2022-08-02T07:22:50.567Z,60.36
2022-08-02T07:23:49.555Z,63.60
2022-08-02T07:24:49.562Z,63.57
2022-08-02T07:26:03.026Z,62.79
2022-08-02T07:27:10.577Z,63.58
2022-08-02T07:27:51.527Z,62.40
2022-08-02T07:28:49.505Z,61.61
2022-08-02T07:29:49.494Z,59.23
2022-08-02T07:30:49.490Z,61.65
2022-08-02T07:31:49.483Z,60.41
2022-08-02T07:32:49.473Z,62.16
2022-08-02T07:33:49.460Z,63.71
2022-08-02T07:34:51.365Z,63.72
2022-08-02T07:35:49.441Z,62.70
2022-08-02T07:36:49.447Z,63.73
2022-08-02T07:37:55.173Z,61.23
2022-08-02T07:38:50.414Z,62.00
2022-08-02T07:39:49.403Z,62.43
2022-08-02T07:40:49.394Z,64.73
2022-08-02T07:41:49.401Z,61.50
2022-08-02T07:42:49.381Z,62.83
2022-08-02T07:43:49.370Z,62.62
2022-08-02T07:44:49.423Z,63.57
2022-08-02T07:45:55.954Z,61.00
2022-08-02T07:47:15.253Z,60.64
2022-08-02T07:47:49.321Z,58.86
2022-08-02T07:48:49.314Z,58.37
2022-08-02T07:49:49.294Z,58.85
2022-08-02T07:50:49.297Z,64.76
2022-08-02T07:51:49.297Z,63.53
2022-08-02T07:52:49.273Z,61.37
2022-08-02T07:53:50.992Z,60.94
2022-08-02T07:54:49.257Z,60.26
2022-08-02T07:55:49.246Z,61.09
2022-08-02T07:56:49.257Z,60.45
2022-08-02T07:57:49.228Z,61.78
2022-08-02T07:58:49.219Z,62.44
2022-08-02T07:59:49.212Z,61.89
2022-08-02T08:00:49.198Z,61.70
2022-08-02T08:01:49.266Z,61.31
2022-08-02T08:02:49.190Z,58.32
2022-08-02T08:03:49.176Z,59.52
2022-08-02T08:04:49.179Z,61.92
2022-08-02T08:05:49.152Z,60.07
2022-08-02T08:06:49.152Z,61.24
2022-08-02T08:07:49.136Z,59.64
2022-08-02T08:08:49.116Z,59.38
2022-08-02T08:09:49.113Z,60.92
2022-08-02T08:10:49.105Z,60.22
2022-08-02T08:11:49.099Z,59.74
2022-08-02T08:12:49.077Z,59.43
2022-08-02T08:13:49.081Z,61.28
2022-08-02T08:14:49.055Z,62.52
2022-08-02T08:15:51.775Z,60.07
2022-08-02T08:16:49.052Z,60.21
2022-08-02T08:17:49.026Z,58.67
2022-08-02T08:18:49.016Z,59.22
2022-08-02T08:19:50.807Z,62.95
2022-08-02T08:20:48.994Z,58.70
2022-08-02T08:21:48.998Z,60.27
2022-08-02T08:22:48.974Z,59.60
2022-08-02T08:23:48.965Z,60.05
2022-08-02T08:24:49.081Z,61.02
2022-08-02T08:25:48.941Z,62.05
2022-08-02T08:26:48.934Z,59.16
2022-08-02T08:27:48.936Z,60.49
2022-08-02T08:28:48.904Z,60.78
2022-08-02T08:29:48.899Z,61.75
2022-08-02T08:30:48.894Z,60.35
2022-08-02T08:31:48.882Z,59.03
2022-08-02T08:32:48.886Z,57.68
2022-08-02T08:33:48.866Z,58.40
2022-08-02T08:34:48.862Z,61.03
2022-08-02T08:35:48.850Z,60.77
2022-08-02T08:36:48.829Z,60.42
2022-08-02T08:37:48.844Z,60.83
2022-08-02T08:38:48.808Z,61.06
2022-08-02T08:39:56.550Z,58.81
2022-08-02T08:40:48.788Z,57.36
2022-08-02T08:41:48.790Z,58.63
2022-08-02T08:42:48.792Z,60.00
2022-08-02T08:43:53.166Z,58.83
2022-08-02T08:44:49.755Z,61.69
2022-08-02T08:45:56.210Z,59.07
2022-08-02T08:46:49.734Z,60.34
2022-08-02T08:47:48.746Z,61.29
2022-08-02T08:48:48.714Z,59.08
2022-08-02T08:49:52.346Z,59.13
2022-08-02T08:50:48.690Z,58.31
2022-08-02T08:51:48.691Z,57.08
2022-08-02T08:52:48.682Z,58.22
2022-08-02T08:53:48.666Z,58.84
2022-08-02T08:54:48.890Z,57.48
2022-08-02T08:55:48.643Z,59.69
2022-08-02T08:56:48.631Z,60.21
2022-08-02T08:57:48.641Z,58.90
2022-08-02T08:58:48.610Z,60.10
2022-08-02T08:59:48.617Z,59.38
2022-08-02T09:00:48.690Z,59.81
2022-08-02T09:01:50.726Z,58.82
2022-08-02T09:02:48.591Z,59.66
2022-08-02T09:03:48.575Z,59.54
2022-08-02T09:04:53.561Z,60.03
2022-08-02T09:05:49.548Z,60.55
2022-08-02T09:06:48.541Z,59.72
2022-08-02T09:07:48.547Z,60.80
2022-08-02T09:08:48.511Z,59.13
2022-08-02T09:09:48.511Z,60.58
2022-08-02T09:10:48.501Z,59.72
2022-08-02T09:11:48.493Z,59.34
2022-08-02T09:12:48.490Z,61.35
2022-08-02T09:13:48.471Z,60.53
2022-08-02T09:14:50.089Z,59.06
2022-08-02T09:15:48.456Z,59.30
2022-08-02T09:16:48.444Z,59.81
2022-08-02T09:17:48.450Z,60.74
2022-08-02T09:18:48.456Z,60.89
2022-08-02T09:19:48.421Z,58.85
2022-08-02T09:20:48.408Z,61.18
2022-08-02T09:21:48.408Z,59.90
2022-08-02T09:22:48.406Z,60.69
2022-08-02T09:23:48.378Z,60.01
2022-08-02T09:24:48.360Z,60.26
2022-08-02T09:25:59.109Z,60.95
2022-08-02T09:26:49.343Z,61.73
2022-08-02T09:27:48.355Z,61.52
2022-08-02T09:28:48.329Z,61.16
2022-08-02T09:30:13.522Z,60.17
2022-08-02T09:30:50.307Z,60.72
2022-08-02T09:31:49.627Z,60.15
2022-08-02T09:32:48.475Z,59.76
2022-08-02T09:33:48.293Z,58.88
2022-08-02T09:34:48.263Z,59.08
2022-08-02T09:36:06.057Z,58.46
2022-08-02T09:36:54.483Z,59.98
2022-08-02T09:37:49.245Z,58.44
2022-08-02T09:38:49.234Z,58.75
2022-08-02T09:39:48.219Z,60.53
2022-08-02T09:40:48.208Z,59.79
2022-08-02T09:41:48.195Z,59.16
2022-08-02T09:42:48.206Z,58.97
2022-08-02T09:44:03.611Z,61.01
2022-08-02T09:44:49.172Z,61.54
2022-08-02T09:45:48.159Z,61.79
2022-08-02T09:46:48.153Z,60.53
2022-08-02T09:47:48.155Z,61.88
2022-08-02T09:48:48.120Z,61.51
2022-08-02T09:49:52.265Z,60.95
2022-08-02T09:50:48.118Z,60.34
2022-08-02T09:51:48.114Z,61.76
2022-08-02T09:52:48.114Z,63.31
2022-08-02T09:53:48.084Z,62.44
2022-08-02T09:54:48.081Z,61.41
2022-08-02T09:55:48.071Z,60.03
2022-08-02T09:56:48.145Z,59.30
2022-08-02T09:57:51.025Z,60.39
2022-08-02T09:58:48.032Z,58.92
2022-08-02T09:59:48.026Z,59.21
2022-08-02T10:00:54.353Z,59.54
2022-08-02T10:01:51.266Z,59.94
2022-08-02T10:02:49.007Z,59.94
2022-08-02T10:03:47.988Z,60.58
2022-08-02T10:04:53.230Z,59.60
2022-08-02T10:05:54.064Z,61.26
2022-08-02T10:06:48.956Z,60.99
2022-08-02T10:07:47.974Z,61.24
2022-08-02T10:08:47.926Z,58.73
2022-08-02T10:09:47.924Z,60.41
2022-08-02T10:10:47.922Z,58.35
2022-08-02T10:11:47.920Z,58.32
2022-08-02T10:12:47.906Z,59.37
2022-08-02T10:13:47.889Z,56.91
2022-08-02T10:14:47.893Z,57.02
2022-08-02T10:15:50.482Z,58.29
2022-08-02T10:16:47.860Z,59.64
2022-08-02T10:17:47.861Z,61.02
2022-08-02T10:18:47.848Z,59.72
2022-08-02T10:20:03.242Z,61.60
2022-08-02T10:20:48.819Z,62.56
2022-08-02T10:21:47.820Z,61.50
2022-08-02T10:22:47.822Z,61.57
2022-08-02T10:23:47.799Z,59.76
2022-08-02T10:24:48.562Z,57.76
2022-08-02T10:25:47.771Z,58.66
2022-08-02T10:26:47.766Z,60.03
2022-08-02T10:28:04.840Z,60.85
2022-08-02T10:28:49.738Z,60.11
2022-08-02T10:29:53.988Z,61.69
2022-08-02T10:30:48.724Z,61.76
2022-08-02T10:31:47.718Z,61.72
2022-08-02T10:32:47.728Z,63.21
2022-08-02T10:33:50.282Z,62.83
2022-08-02T10:34:51.056Z,62.01
2022-08-02T10:35:47.683Z,61.46
2022-08-02T10:36:48.661Z,60.32
2022-08-02T10:37:47.681Z,59.53
2022-08-02T10:38:47.648Z,59.07
2022-08-02T10:45:27.573Z,55.58
2022-08-02T10:46:27.575Z,54.28
2022-08-02T10:47:27.554Z,55.44
2022-08-02T10:48:27.561Z,55.33
2022-08-02T10:49:42.946Z,57.38
2022-08-02T10:50:28.541Z,55.99
2022-08-02T10:51:29.910Z,57.39
2022-08-02T10:52:28.508Z,55.09
2022-08-02T10:53:28.639Z,55.73
2022-08-02T10:54:28.614Z,55.64
2022-08-02T10:55:28.613Z,57.32
2022-08-02T10:56:28.596Z,58.74
2022-08-02T10:57:28.597Z,56.93
2022-08-02T10:58:29.376Z,56.29
2022-08-02T10:59:28.605Z,56.19
2022-08-02T11:00:28.565Z,57.32
2022-08-02T11:01:38.735Z,58.24
2022-08-02T11:05:14.659Z,57.49
2022-08-02T11:06:25.002Z,58.49
2022-08-02T11:07:15.637Z,58.62
2022-08-02T11:08:15.764Z,58.08
2022-08-02T11:09:15.735Z,58.07
2022-08-02T11:10:15.735Z,58.41
2022-08-02T11:11:15.714Z,59.11
2022-08-02T11:12:15.986Z,57.39
2022-08-02T11:13:15.722Z,55.92
2022-08-02T11:14:15.690Z,55.74
2022-08-02T11:15:15.672Z,55.50
2022-08-02T11:16:15.674Z,56.69
2022-08-02T11:17:15.670Z,56.32
2022-08-02T11:18:15.673Z,57.51
2022-08-02T11:19:15.646Z,58.61
2022-08-02T11:20:15.630Z,58.13
2022-08-02T11:21:15.638Z,57.48
2022-08-02T11:22:15.858Z,63.76
2022-08-02T11:23:15.620Z,60.88
2022-08-02T11:24:15.602Z,58.83
2022-08-02T11:25:15.586Z,59.90
2022-08-02T11:26:15.574Z,58.92
2022-08-02T11:27:15.570Z,59.85
2022-08-02T11:28:15.571Z,58.51
2022-08-02T11:29:16.239Z,59.00
2022-08-02T11:30:15.538Z,59.84
2022-08-02T11:31:15.520Z,59.54
2022-08-02T11:32:15.796Z,58.47
2022-08-02T11:33:15.523Z,59.04
2022-08-02T11:34:38.042Z,60.40
2022-08-02T11:35:16.483Z,58.65
2022-08-02T11:36:15.483Z,59.20
2022-08-02T11:37:15.475Z,58.38
2022-08-02T11:38:16.224Z,57.63
2022-08-02T11:39:15.935Z,56.43
2022-08-02T11:40:19.418Z,55.42
2022-08-02T11:41:15.446Z,54.36
2022-08-02T11:42:16.430Z,54.53
2022-08-02T11:43:15.429Z,55.09
2022-08-02T11:44:15.426Z,55.57
2022-08-02T11:45:20.988Z,57.02
2022-08-02T11:46:16.396Z,56.62
2022-08-02T11:47:15.376Z,57.08
2022-08-02T11:48:15.390Z,57.82
2022-08-02T11:49:15.398Z,58.83
2022-08-02T11:50:15.357Z,57.69
2022-08-02T11:51:15.338Z,58.43
2022-08-02T11:52:15.590Z,57.63
2022-08-02T11:53:15.342Z,58.56
2022-08-02T11:54:15.317Z,58.22
2022-08-02T11:55:15.295Z,59.92
2022-08-02T11:56:21.688Z,58.94
2022-08-02T11:57:19.816Z,56.79
2022-08-02T11:58:16.300Z,55.06
2022-08-02T11:59:15.265Z,56.78
2022-08-02T12:00:15.265Z,55.11
2022-08-02T12:01:15.254Z,56.65
2022-08-02T12:02:15.500Z,58.19
2022-08-02T12:03:19.361Z,57.80
2022-08-02T12:04:15.222Z,59.73
2022-08-02T12:05:15.208Z,58.78
2022-08-02T12:06:16.674Z,58.07
2022-08-02T12:07:15.193Z,59.74
2022-08-02T12:08:19.081Z,60.31
2022-08-02T12:09:18.721Z,60.74
2022-08-02T12:10:18.670Z,59.72
2022-08-02T12:11:15.148Z,58.52
2022-08-02T12:12:15.472Z,57.78
2022-08-02T12:13:15.151Z,58.15
2022-08-02T12:14:15.135Z,58.32
2022-08-02T12:15:15.103Z,59.65
2022-08-02T12:16:15.100Z,60.81
2022-08-02T12:17:15.091Z,60.54
2022-08-02T12:18:15.110Z,58.25
2022-08-02T12:19:15.072Z,60.03
2022-08-02T12:20:15.058Z,58.56
2022-08-02T12:21:15.049Z,57.70
2022-08-02T12:22:15.435Z,56.26
2022-08-02T12:23:15.055Z,57.39
2022-08-02T12:24:15.020Z,55.33
2022-08-02T12:25:15.009Z,54.36
2022-08-02T12:26:16.536Z,53.77
2022-08-02T12:27:14.989Z,52.79
2022-08-02T12:28:17.517Z,54.47
2022-08-02T12:29:15.996Z,56.30
2022-08-02T12:30:15.968Z,55.41
2022-08-02T12:31:14.949Z,56.76
2022-08-02T12:32:15.204Z,56.97
2022-08-02T12:33:14.944Z,54.66
2022-08-02T12:34:14.933Z,55.42
2022-08-02T12:35:14.916Z,54.42
2022-08-02T12:36:15.927Z,57.60
2022-08-02T12:37:14.904Z,57.92
2022-08-02T12:38:14.892Z,55.28
2022-08-02T12:39:14.886Z,57.57
2022-08-02T12:40:14.872Z,57.18
2022-08-02T12:41:31.541Z,58.72
2022-08-02T12:42:16.500Z,56.43
2022-08-02T12:43:14.830Z,56.59
2022-08-02T12:44:14.848Z,56.08
2022-08-02T12:45:15.866Z,56.29
2022-08-02T12:46:14.816Z,56.75
2022-08-02T12:47:14.797Z,56.63
2022-08-02T12:48:14.792Z,57.10
2022-08-02T12:49:18.246Z,58.18
2022-08-02T12:50:15.781Z,57.37
2022-08-02T12:51:14.755Z,58.88
2022-08-02T12:52:14.884Z,56.84
2022-08-02T12:53:14.749Z,60.72
2022-08-02T12:54:17.856Z,58.81
2022-08-02T12:55:14.726Z,56.40
2022-08-02T12:56:14.733Z,56.27
2022-08-02T12:57:14.707Z,56.54
2022-08-02T12:58:14.702Z,57.60
2022-08-02T12:59:14.698Z,58.38
2022-08-02T13:00:14.679Z,58.00
2022-08-02T13:01:14.712Z,58.84